sensor_id;sensor_type;location;lat;lon;timestamp;temperature;humidity
9975;DHT22;5028;50.974;4.968;2023-07-29T00:01:00;19.50;99.90
9975;DHT22;5028;50.974;4.968;2023-07-29T00:03:29;19.50;99.90
9975;DHT22;5028;50.974;4.968;2023-07-29T00:05:59;19.50;99.90
9975;DHT22;5028;50.974;4.968;2023-07-29T00:08:27;19.50;99.90
9975;DHT22;5028;50.974;4.968;2023-07-29T00:10:55;19.50;99.90
9975;DHT22;5028;50.974;4.968;2023-07-29T00:13:25;19.50;99.90
9975;DHT22;5028;50.974;4.968;2023-07-29T00:15:54;19.50;99.90
9975;DHT22;5028;50.974;4.968;2023-07-29T00:18:23;19.50;99.90
9975;DHT22;5028;50.974;4.968;2023-07-29T00:20:51;19.40;99.90
9975;DHT22;5028;50.974;4.968;2023-07-29T00:23:20;19.40;99.90
9975;DHT22;5028;50.974;4.968;2023-07-29T00:25:48;19.40;99.90
9975;DHT22;5028;50.974;4.968;2023-07-29T00:28:16;19.40;99.90
9975;DHT22;5028;50.974;4.968;2023-07-29T00:30:50;19.30;99.90
9975;DHT22;5028;50.974;4.968;2023-07-29T00:33:19;19.30;99.90
9975;DHT22;5028;50.974;4.968;2023-07-29T00:35:47;19.40;99.90
9975;DHT22;5028;50.974;4.968;2023-07-29T00:38:16;19.30;99.90
9975;DHT22;5028;50.974;4.968;2023-07-29T00:40:44;19.30;99.90
9975;DHT22;5028;50.974;4.968;2023-07-29T00:43:12;19.30;99.90
9975;DHT22;5028;50.974;4.968;2023-07-29T00:45:43;19.30;99.90
9975;DHT22;5028;50.974;4.968;2023-07-29T00:48:13;19.30;99.90
9975;DHT22;5028;50.974;4.968;2023-07-29T00:50:42;19.30;99.90
9975;DHT22;5028;50.974;4.968;2023-07-29T00:53:10;19.30;99.90
9975;DHT22;5028;50.974;4.968;2023-07-29T00:55:38;19.30;99.90
9975;DHT22;5028;50.974;4.968;2023-07-29T00:58:07;19.30;99.90
9975;DHT22;5028;50.974;4.968;2023-07-29T01:00:35;19.30;99.90
9975;DHT22;5028;50.974;4.968;2023-07-29T01:03:04;19.20;99.90
9975;DHT22;5028;50.974;4.968;2023-07-29T01:05:39;19.10;99.90
9975;DHT22;5028;50.974;4.968;2023-07-29T01:08:13;19.10;99.90
9975;DHT22;5028;50.974;4.968;2023-07-29T01:10:51;19.10;99.90
9975;DHT22;5028;50.974;4.968;2023-07-29T01:13:28;19.10;99.90
9975;DHT22;5028;50.974;4.968;2023-07-29T01:16:00;19.10;99.90
9975;DHT22;5028;50.974;4.968;2023-07-29T01:18:31;19.10;99.90
9975;DHT22;5028;50.974;4.968;2023-07-29T01:21:03;19.00;99.90
9975;DHT22;5028;50.974;4.968;2023-07-29T01:23:34;19.00;99.90
9975;DHT22;5028;50.974;4.968;2023-07-29T01:26:03;18.90;99.90
9975;DHT22;5028;50.974;4.968;2023-07-29T01:28:31;18.80;99.90
9975;DHT22;5028;50.974;4.968;2023-07-29T01:31:02;18.70;99.90
9975;DHT22;5028;50.974;4.968;2023-07-29T01:33:38;18.70;99.90
9975;DHT22;5028;50.974;4.968;2023-07-29T01:36:13;18.70;99.90
9975;DHT22;5028;50.974;4.968;2023-07-29T01:38:44;18.60;99.90
9975;DHT22;5028;50.974;4.968;2023-07-29T01:41:13;18.50;99.90
9975;DHT22;5028;50.974;4.968;2023-07-29T01:43:41;18.50;99.90
9975;DHT22;5028;50.974;4.968;2023-07-29T01:46:11;18.50;99.90
9975;DHT22;5028;50.974;4.968;2023-07-29T01:48:39;18.50;99.90
9975;DHT22;5028;50.974;4.968;2023-07-29T01:51:08;18.50;99.90
9975;DHT22;5028;50.974;4.968;2023-07-29T01:53:36;18.50;99.90
9975;DHT22;5028;50.974;4.968;2023-07-29T01:56:05;18.40;99.90
9975;DHT22;5028;50.974;4.968;2023-07-29T01:58:34;18.40;99.90
9975;DHT22;5028;50.974;4.968;2023-07-29T02:01:02;18.30;99.90
9975;DHT22;5028;50.974;4.968;2023-07-29T02:03:30;18.30;99.90
9975;DHT22;5028;50.974;4.968;2023-07-29T02:05:58;18.20;99.90
9975;DHT22;5028;50.974;4.968;2023-07-29T02:08:26;18.10;99.90
9975;DHT22;5028;50.974;4.968;2023-07-29T02:10:55;18.10;99.90
9975;DHT22;5028;50.974;4.968;2023-07-29T02:13:24;18.10;99.90
9975;DHT22;5028;50.974;4.968;2023-07-29T02:15:52;18.00;99.90
9975;DHT22;5028;50.974;4.968;2023-07-29T02:18:21;18.00;99.90
9975;DHT22;5028;50.974;4.968;2023-07-29T02:20:49;17.90;99.90
9975;DHT22;5028;50.974;4.968;2023-07-29T02:23:17;17.90;99.90
9975;DHT22;5028;50.974;4.968;2023-07-29T02:25:45;17.90;99.90
9975;DHT22;5028;50.974;4.968;2023-07-29T02:28:14;17.80;99.90
9975;DHT22;5028;50.974;4.968;2023-07-29T02:30:43;17.80;99.90
9975;DHT22;5028;50.974;4.968;2023-07-29T02:33:12;17.70;99.90
9975;DHT22;5028;50.974;4.968;2023-07-29T02:35:40;17.70;99.90
9975;DHT22;5028;50.974;4.968;2023-07-29T02:38:08;17.70;99.90
9975;DHT22;5028;50.974;4.968;2023-07-29T02:40:38;17.70;99.90
9975;DHT22;5028;50.974;4.968;2023-07-29T02:43:06;17.70;99.90
9975;DHT22;5028;50.974;4.968;2023-07-29T02:45:34;17.70;99.90
9975;DHT22;5028;50.974;4.968;2023-07-29T02:48:04;17.60;99.90
9975;DHT22;5028;50.974;4.968;2023-07-29T02:50:34;17.60;99.90
9975;DHT22;5028;50.974;4.968;2023-07-29T02:53:02;17.50;99.90
9975;DHT22;5028;50.974;4.968;2023-07-29T02:55:30;17.50;99.90
9975;DHT22;5028;50.974;4.968;2023-07-29T02:57:59;17.50;99.90
9975;DHT22;5028;50.974;4.968;2023-07-29T03:00:27;17.40;99.90
9975;DHT22;5028;50.974;4.968;2023-07-29T03:02:59;17.40;99.90
9975;DHT22;5028;50.974;4.968;2023-07-29T03:05:29;17.40;99.90
9975;DHT22;5028;50.974;4.968;2023-07-29T03:07:58;17.40;99.90
9975;DHT22;5028;50.974;4.968;2023-07-29T03:10:26;17.30;99.90
9975;DHT22;5028;50.974;4.968;2023-07-29T03:12:55;17.30;99.90
9975;DHT22;5028;50.974;4.968;2023-07-29T03:15:23;17.30;99.90
9975;DHT22;5028;50.974;4.968;2023-07-29T03:17:52;17.30;99.90
9975;DHT22;5028;50.974;4.968;2023-07-29T03:20:21;17.30;99.90
9975;DHT22;5028;50.974;4.968;2023-07-29T03:22:50;17.20;99.90
9975;DHT22;5028;50.974;4.968;2023-07-29T03:25:18;17.20;99.90
9975;DHT22;5028;50.974;4.968;2023-07-29T03:27:46;17.30;99.90
9975;DHT22;5028;50.974;4.968;2023-07-29T03:30:19;17.20;99.90
9975;DHT22;5028;50.974;4.968;2023-07-29T03:32:48;17.20;99.90
9975;DHT22;5028;50.974;4.968;2023-07-29T03:35:17;17.20;99.90
9975;DHT22;5028;50.974;4.968;2023-07-29T03:37:46;17.20;99.90
9975;DHT22;5028;50.974;4.968;2023-07-29T03:40:15;17.20;99.90
9975;DHT22;5028;50.974;4.968;2023-07-29T03:42:45;17.20;99.90
9975;DHT22;5028;50.974;4.968;2023-07-29T03:45:13;17.20;99.90
9975;DHT22;5028;50.974;4.968;2023-07-29T03:47:41;17.10;99.90
9975;DHT22;5028;50.974;4.968;2023-07-29T03:50:09;17.10;99.90
9975;DHT22;5028;50.974;4.968;2023-07-29T03:52:38;17.10;99.90
9975;DHT22;5028;50.974;4.968;2023-07-29T03:55:07;17.10;99.90
9975;DHT22;5028;50.974;4.968;2023-07-29T03:57:36;17.10;99.90
9975;DHT22;5028;50.974;4.968;2023-07-29T04:00:05;17.00;99.90
9975;DHT22;5028;50.974;4.968;2023-07-29T04:02:37;17.00;99.90
9975;DHT22;5028;50.974;4.968;2023-07-29T04:05:06;16.90;99.90
9975;DHT22;5028;50.974;4.968;2023-07-29T04:07:35;16.90;99.90
9975;DHT22;5028;50.974;4.968;2023-07-29T04:10:05;16.90;99.90
9975;DHT22;5028;50.974;4.968;2023-07-29T04:12:33;16.90;99.90
9975;DHT22;5028;50.974;4.968;2023-07-29T04:15:04;16.90;99.90
9975;DHT22;5028;50.974;4.968;2023-07-29T04:17:32;16.90;99.90
9975;DHT22;5028;50.974;4.968;2023-07-29T04:20:00;16.90;99.90
9975;DHT22;5028;50.974;4.968;2023-07-29T04:22:29;16.90;99.90
9975;DHT22;5028;50.974;4.968;2023-07-29T04:24:57;16.90;99.90
9975;DHT22;5028;50.974;4.968;2023-07-29T04:27:25;16.90;99.90
9975;DHT22;5028;50.974;4.968;2023-07-29T04:29:54;16.90;99.90
9975;DHT22;5028;50.974;4.968;2023-07-29T04:32:23;16.90;99.90
9975;DHT22;5028;50.974;4.968;2023-07-29T04:34:52;16.80;99.90
9975;DHT22;5028;50.974;4.968;2023-07-29T04:37:21;16.80;99.90
9975;DHT22;5028;50.974;4.968;2023-07-29T04:39:49;16.80;99.90
9975;DHT22;5028;50.974;4.968;2023-07-29T04:42:17;16.80;99.90
9975;DHT22;5028;50.974;4.968;2023-07-29T04:44:45;16.80;99.90
9975;DHT22;5028;50.974;4.968;2023-07-29T04:47:14;16.80;99.90
9975;DHT22;5028;50.974;4.968;2023-07-29T04:49:43;16.70;99.90
9975;DHT22;5028;50.974;4.968;2023-07-29T04:52:11;16.70;99.90
9975;DHT22;5028;50.974;4.968;2023-07-29T04:54:40;16.70;99.90
9975;DHT22;5028;50.974;4.968;2023-07-29T04:57:08;16.70;99.90
9975;DHT22;5028;50.974;4.968;2023-07-29T04:59:37;16.70;99.90
9975;DHT22;5028;50.974;4.968;2023-07-29T05:02:05;16.70;99.90
9975;DHT22;5028;50.974;4.968;2023-07-29T05:04:33;16.70;99.90
9975;DHT22;5028;50.974;4.968;2023-07-29T05:07:03;16.70;99.90
9975;DHT22;5028;50.974;4.968;2023-07-29T05:09:31;16.70;99.90
9975;DHT22;5028;50.974;4.968;2023-07-29T05:12:00;16.80;99.90
9975;DHT22;5028;50.974;4.968;2023-07-29T05:14:28;16.80;99.90
9975;DHT22;5028;50.974;4.968;2023-07-29T05:16:56;16.80;99.90
9975;DHT22;5028;50.974;4.968;2023-07-29T05:19:24;16.90;99.90
9975;DHT22;5028;50.974;4.968;2023-07-29T05:21:52;16.80;99.90
9975;DHT22;5028;50.974;4.968;2023-07-29T05:24:22;16.90;99.90
9975;DHT22;5028;50.974;4.968;2023-07-29T05:26:50;16.90;99.90
9975;DHT22;5028;50.974;4.968;2023-07-29T05:29:18;16.90;99.90
9975;DHT22;5028;50.974;4.968;2023-07-29T05:31:46;17.00;99.90
9975;DHT22;5028;50.974;4.968;2023-07-29T05:34:14;17.00;99.90
9975;DHT22;5028;50.974;4.968;2023-07-29T05:36:43;17.00;99.90
9975;DHT22;5028;50.974;4.968;2023-07-29T05:39:11;17.10;99.90
9975;DHT22;5028;50.974;4.968;2023-07-29T05:41:41;17.20;99.90
9975;DHT22;5028;50.974;4.968;2023-07-29T05:44:09;17.20;99.90
9975;DHT22;5028;50.974;4.968;2023-07-29T05:46:37;17.30;99.90
9975;DHT22;5028;50.974;4.968;2023-07-29T05:49:06;17.50;99.90
9975;DHT22;5028;50.974;4.968;2023-07-29T05:51:34;17.50;99.90
9975;DHT22;5028;50.974;4.968;2023-07-29T05:54:02;17.60;99.90
9975;DHT22;5028;50.974;4.968;2023-07-29T05:56:30;17.70;99.90
9975;DHT22;5028;50.974;4.968;2023-07-29T05:59:00;17.80;99.90
9975;DHT22;5028;50.974;4.968;2023-07-29T06:01:28;17.90;99.90
9975;DHT22;5028;50.974;4.968;2023-07-29T06:03:56;18.00;99.90
9975;DHT22;5028;50.974;4.968;2023-07-29T06:06:25;18.00;99.90
9975;DHT22;5028;50.974;4.968;2023-07-29T06:08:53;18.00;99.90
9975;DHT22;5028;50.974;4.968;2023-07-29T06:11:21;18.00;99.90
9975;DHT22;5028;50.974;4.968;2023-07-29T06:13:50;18.00;99.90
9975;DHT22;5028;50.974;4.968;2023-07-29T06:16:19;18.00;99.90
9975;DHT22;5028;50.974;4.968;2023-07-29T06:18:47;18.20;99.90
9975;DHT22;5028;50.974;4.968;2023-07-29T06:21:16;18.50;99.90
9975;DHT22;5028;50.974;4.968;2023-07-29T06:23:46;18.60;99.90
9975;DHT22;5028;50.974;4.968;2023-07-29T06:26:14;18.80;99.90
9975;DHT22;5028;50.974;4.968;2023-07-29T06:28:42;18.80;99.90
9975;DHT22;5028;50.974;4.968;2023-07-29T06:31:10;18.80;99.90
9975;DHT22;5028;50.974;4.968;2023-07-29T06:33:40;18.80;99.90
9975;DHT22;5028;50.974;4.968;2023-07-29T06:36:08;18.80;99.90
9975;DHT22;5028;50.974;4.968;2023-07-29T06:38:36;19.00;99.90
9975;DHT22;5028;50.974;4.968;2023-07-29T06:41:05;19.00;99.90
9975;DHT22;5028;50.974;4.968;2023-07-29T06:43:33;19.00;99.90
9975;DHT22;5028;50.974;4.968;2023-07-29T06:46:01;18.90;99.90
9975;DHT22;5028;50.974;4.968;2023-07-29T06:48:30;18.90;99.90
9975;DHT22;5028;50.974;4.968;2023-07-29T06:50:59;18.90;99.90
9975;DHT22;5028;50.974;4.968;2023-07-29T06:53:29;19.00;99.90
9975;DHT22;5028;50.974;4.968;2023-07-29T06:56:00;19.10;99.90
9975;DHT22;5028;50.974;4.968;2023-07-29T06:58:28;19.30;99.90
9975;DHT22;5028;50.974;4.968;2023-07-29T07:00:57;19.50;99.90
9975;DHT22;5028;50.974;4.968;2023-07-29T07:03:25;19.50;99.90
9975;DHT22;5028;50.974;4.968;2023-07-29T07:05:53;19.50;99.90
9975;DHT22;5028;50.974;4.968;2023-07-29T07:08:23;19.50;99.90
9975;DHT22;5028;50.974;4.968;2023-07-29T07:10:51;19.60;99.90
9975;DHT22;5028;50.974;4.968;2023-07-29T07:13:19;19.70;99.90
9975;DHT22;5028;50.974;4.968;2023-07-29T07:15:47;19.80;99.90
9975;DHT22;5028;50.974;4.968;2023-07-29T07:18:16;19.90;99.90
9975;DHT22;5028;50.974;4.968;2023-07-29T07:20:48;20.00;99.90
9975;DHT22;5028;50.974;4.968;2023-07-29T07:23:16;20.00;99.90
9975;DHT22;5028;50.974;4.968;2023-07-29T07:25:46;20.10;99.90
9975;DHT22;5028;50.974;4.968;2023-07-29T07:28:14;20.20;99.90
9975;DHT22;5028;50.974;4.968;2023-07-29T07:30:43;20.30;99.90
9975;DHT22;5028;50.974;4.968;2023-07-29T07:33:13;20.30;99.90
9975;DHT22;5028;50.974;4.968;2023-07-29T07:35:41;20.40;99.90
9975;DHT22;5028;50.974;4.968;2023-07-29T07:38:10;20.40;99.90
9975;DHT22;5028;50.974;4.968;2023-07-29T07:40:38;20.30;99.90
9975;DHT22;5028;50.974;4.968;2023-07-29T07:43:08;20.30;99.90
9975;DHT22;5028;50.974;4.968;2023-07-29T07:45:36;20.40;99.90
9975;DHT22;5028;50.974;4.968;2023-07-29T07:48:05;20.40;99.90
9975;DHT22;5028;50.974;4.968;2023-07-29T07:50:33;20.40;99.90
9975;DHT22;5028;50.974;4.968;2023-07-29T07:53:01;20.40;99.90
9975;DHT22;5028;50.974;4.968;2023-07-29T07:55:29;20.40;99.90
9975;DHT22;5028;50.974;4.968;2023-07-29T07:57:58;20.40;99.90
9975;DHT22;5028;50.974;4.968;2023-07-29T08:00:28;20.30;99.90
9975;DHT22;5028;50.974;4.968;2023-07-29T08:02:56;20.40;99.90
9975;DHT22;5028;50.974;4.968;2023-07-29T08:05:24;20.40;99.90
9975;DHT22;5028;50.974;4.968;2023-07-29T08:07:52;20.40;99.90
9975;DHT22;5028;50.974;4.968;2023-07-29T08:10:20;20.40;99.90
9975;DHT22;5028;50.974;4.968;2023-07-29T08:12:49;20.40;99.90
9975;DHT22;5028;50.974;4.968;2023-07-29T08:15:17;20.40;99.90
9975;DHT22;5028;50.974;4.968;2023-07-29T08:17:47;20.30;99.90
9975;DHT22;5028;50.974;4.968;2023-07-29T08:20:15;20.50;99.90
9975;DHT22;5028;50.974;4.968;2023-07-29T08:22:44;20.60;99.90
9975;DHT22;5028;50.974;4.968;2023-07-29T08:25:12;20.70;99.90
9975;DHT22;5028;50.974;4.968;2023-07-29T08:27:40;20.80;99.90
9975;DHT22;5028;50.974;4.968;2023-07-29T08:30:09;20.90;99.90
9975;DHT22;5028;50.974;4.968;2023-07-29T08:32:37;20.90;99.90
9975;DHT22;5028;50.974;4.968;2023-07-29T08:35:08;21.10;99.90
9975;DHT22;5028;50.974;4.968;2023-07-29T08:37:36;21.20;99.90
9975;DHT22;5028;50.974;4.968;2023-07-29T08:40:06;21.30;99.90
9975;DHT22;5028;50.974;4.968;2023-07-29T08:42:35;21.50;99.90
9975;DHT22;5028;50.974;4.968;2023-07-29T08:45:07;21.60;99.90
9975;DHT22;5028;50.974;4.968;2023-07-29T08:47:36;21.50;99.90
9975;DHT22;5028;50.974;4.968;2023-07-29T08:50:07;21.40;99.90
9975;DHT22;5028;50.974;4.968;2023-07-29T08:52:39;21.50;99.90
9975;DHT22;5028;50.974;4.968;2023-07-29T08:55:09;21.30;99.90
9975;DHT22;5028;50.974;4.968;2023-07-29T08:57:38;21.30;99.90
9975;DHT22;5028;50.974;4.968;2023-07-29T09:00:07;21.40;99.90
9975;DHT22;5028;50.974;4.968;2023-07-29T09:02:36;21.60;99.90
9975;DHT22;5028;50.974;4.968;2023-07-29T09:05:07;21.90;99.90
9975;DHT22;5028;50.974;4.968;2023-07-29T09:07:36;21.90;99.90
9975;DHT22;5028;50.974;4.968;2023-07-29T09:10:09;22.20;99.90
9975;DHT22;5028;50.974;4.968;2023-07-29T09:12:38;22.30;99.90
9975;DHT22;5028;50.974;4.968;2023-07-29T09:15:07;22.30;99.90
9975;DHT22;5028;50.974;4.968;2023-07-29T09:17:36;22.20;99.90
9975;DHT22;5028;50.974;4.968;2023-07-29T09:20:07;22.20;99.90
9975;DHT22;5028;50.974;4.968;2023-07-29T09:22:37;22.60;99.90
9975;DHT22;5028;50.974;4.968;2023-07-29T09:25:06;22.90;99.90
9975;DHT22;5028;50.974;4.968;2023-07-29T09:27:35;22.90;99.90
9975;DHT22;5028;50.974;4.968;2023-07-29T09:30:07;22.80;99.90
9975;DHT22;5028;50.974;4.968;2023-07-29T09:32:43;22.60;99.90
9975;DHT22;5028;50.974;4.968;2023-07-29T09:35:13;22.60;99.90
9975;DHT22;5028;50.974;4.968;2023-07-29T09:37:41;22.90;99.90
9975;DHT22;5028;50.974;4.968;2023-07-29T09:40:14;23.00;99.90
9975;DHT22;5028;50.974;4.968;2023-07-29T09:42:48;23.10;99.90
9975;DHT22;5028;50.974;4.968;2023-07-29T09:45:25;23.40;99.90
9975;DHT22;5028;50.974;4.968;2023-07-29T09:47:54;24.00;99.90
9975;DHT22;5028;50.974;4.968;2023-07-29T09:50:25;23.90;99.90
9975;DHT22;5028;50.974;4.968;2023-07-29T09:52:54;23.70;99.90
9975;DHT22;5028;50.974;4.968;2023-07-29T09:55:26;23.60;99.90
9975;DHT22;5028;50.974;4.968;2023-07-29T09:57:56;23.60;99.90
9975;DHT22;5028;50.974;4.968;2023-07-29T10:00:28;23.50;99.90
9975;DHT22;5028;50.974;4.968;2023-07-29T10:02:57;23.40;99.90
9975;DHT22;5028;50.974;4.968;2023-07-29T10:05:28;23.50;99.90
9975;DHT22;5028;50.974;4.968;2023-07-29T10:07:57;23.70;99.90
9975;DHT22;5028;50.974;4.968;2023-07-29T10:10:26;24.10;99.90
9975;DHT22;5028;50.974;4.968;2023-07-29T10:12:56;24.70;99.90
9975;DHT22;5028;50.974;4.968;2023-07-29T10:15:25;25.00;99.90
9975;DHT22;5028;50.974;4.968;2023-07-29T10:17:54;24.70;99.90
9975;DHT22;5028;50.974;4.968;2023-07-29T10:20:23;24.40;99.90
9975;DHT22;5028;50.974;4.968;2023-07-29T10:22:56;24.10;99.90
9975;DHT22;5028;50.974;4.968;2023-07-29T10:25:32;23.90;99.90
9975;DHT22;5028;50.974;4.968;2023-07-29T10:28:06;23.70;99.90
9975;DHT22;5028;50.974;4.968;2023-07-29T10:30:34;23.60;99.90
9975;DHT22;5028;50.974;4.968;2023-07-29T10:33:04;23.60;99.90
9975;DHT22;5028;50.974;4.968;2023-07-29T10:35:33;23.60;99.90
9975;DHT22;5028;50.974;4.968;2023-07-29T10:38:04;24.10;99.90
9975;DHT22;5028;50.974;4.968;2023-07-29T10:40:51;24.40;99.90
9975;DHT22;5028;50.974;4.968;2023-07-29T10:43:25;24.40;99.90
9975;DHT22;5028;50.974;4.968;2023-07-29T10:45:55;24.30;99.90
9975;DHT22;5028;50.974;4.968;2023-07-29T10:48:42;24.20;99.90
9975;DHT22;5028;50.974;4.968;2023-07-29T10:51:28;24.10;99.90
9975;DHT22;5028;50.974;4.968;2023-07-29T10:54:00;24.10;99.90
9975;DHT22;5028;50.974;4.968;2023-07-29T10:56:30;24.10;99.90
9975;DHT22;5028;50.974;4.968;2023-07-29T10:59:23;24.10;99.90
9975;DHT22;5028;50.974;4.968;2023-07-29T11:01:52;24.00;99.90
9975;DHT22;5028;50.974;4.968;2023-07-29T11:04:24;23.70;99.90
9975;DHT22;5028;50.974;4.968;2023-07-29T11:07:21;23.60;99.90
9975;DHT22;5028;50.974;4.968;2023-07-29T11:10:02;23.40;99.90
9975;DHT22;5028;50.974;4.968;2023-07-29T11:12:41;23.30;99.90
9975;DHT22;5028;50.974;4.968;2023-07-29T11:15:15;23.20;99.90
9975;DHT22;5028;50.974;4.968;2023-07-29T11:17:45;22.90;99.90
9975;DHT22;5028;50.974;4.968;2023-07-29T11:20:15;22.60;99.90
9975;DHT22;5028;50.974;4.968;2023-07-29T11:22:44;22.20;99.90
9975;DHT22;5028;50.974;4.968;2023-07-29T11:25:15;21.90;99.90
9975;DHT22;5028;50.974;4.968;2023-07-29T11:27:44;21.80;99.90
9975;DHT22;5028;50.974;4.968;2023-07-29T11:30:15;21.60;99.90
9975;DHT22;5028;50.974;4.968;2023-07-29T11:32:44;21.60;99.90
9975;DHT22;5028;50.974;4.968;2023-07-29T11:35:14;21.60;99.90
9975;DHT22;5028;50.974;4.968;2023-07-29T11:37:45;21.60;99.90
9975;DHT22;5028;50.974;4.968;2023-07-29T11:40:16;21.70;99.90
9975;DHT22;5028;50.974;4.968;2023-07-29T11:42:45;21.90;99.90
9975;DHT22;5028;50.974;4.968;2023-07-29T11:45:14;22.20;99.90
9975;DHT22;5028;50.974;4.968;2023-07-29T11:47:44;22.40;99.90
9975;DHT22;5028;50.974;4.968;2023-07-29T11:50:16;22.50;99.90
9975;DHT22;5028;50.974;4.968;2023-07-29T11:52:45;22.40;99.90
9975;DHT22;5028;50.974;4.968;2023-07-29T11:55:15;22.30;99.90
9975;DHT22;5028;50.974;4.968;2023-07-29T11:57:49;22.40;99.90
9975;DHT22;5028;50.974;4.968;2023-07-29T12:00:19;22.60;99.90
9975;DHT22;5028;50.974;4.968;2023-07-29T12:02:49;23.10;99.90
9975;DHT22;5028;50.974;4.968;2023-07-29T12:05:20;23.80;99.90
9975;DHT22;5028;50.974;4.968;2023-07-29T12:07:55;24.30;99.90
9975;DHT22;5028;50.974;4.968;2023-07-29T12:10:25;24.30;99.90
9975;DHT22;5028;50.974;4.968;2023-07-29T12:12:53;24.70;99.90
9975;DHT22;5028;50.974;4.968;2023-07-29T12:15:23;25.10;99.90
9975;DHT22;5028;50.974;4.968;2023-07-29T12:17:56;25.30;99.90
9975;DHT22;5028;50.974;4.968;2023-07-29T12:20:25;24.90;99.90
9975;DHT22;5028;50.974;4.968;2023-07-29T12:22:55;24.90;99.90
9975;DHT22;5028;50.974;4.968;2023-07-29T12:25:26;24.90;99.90
9975;DHT22;5028;50.974;4.968;2023-07-29T12:27:55;24.80;99.90
9975;DHT22;5028;50.974;4.968;2023-07-29T12:30:23;25.20;99.90
9975;DHT22;5028;50.974;4.968;2023-07-29T12:32:52;25.40;99.90
9975;DHT22;5028;50.974;4.968;2023-07-29T12:35:20;25.90;99.90
9975;DHT22;5028;50.974;4.968;2023-07-29T12:37:58;25.70;99.90
9975;DHT22;5028;50.974;4.968;2023-07-29T12:40:28;25.60;99.90
9975;DHT22;5028;50.974;4.968;2023-07-29T12:42:56;25.40;99.90
9975;DHT22;5028;50.974;4.968;2023-07-29T12:45:24;25.00;99.90
9975;DHT22;5028;50.974;4.968;2023-07-29T12:47:56;24.60;99.90
9975;DHT22;5028;50.974;4.968;2023-07-29T12:50:24;24.40;99.90
9975;DHT22;5028;50.974;4.968;2023-07-29T12:52:53;24.20;99.90
9975;DHT22;5028;50.974;4.968;2023-07-29T12:55:21;24.00;99.90
9975;DHT22;5028;50.974;4.968;2023-07-29T12:57:51;23.30;99.90
9975;DHT22;5028;50.974;4.968;2023-07-29T13:00:19;22.90;99.90
9975;DHT22;5028;50.974;4.968;2023-07-29T13:02:47;21.90;99.90
9975;DHT22;5028;50.974;4.968;2023-07-29T13:05:16;21.50;99.90
9975;DHT22;5028;50.974;4.968;2023-07-29T13:07:44;21.10;99.90
9975;DHT22;5028;50.974;4.968;2023-07-29T13:10:13;20.60;99.90
9975;DHT22;5028;50.974;4.968;2023-07-29T13:12:41;20.60;99.90
9975;DHT22;5028;50.974;4.968;2023-07-29T13:15:11;20.70;99.90
9975;DHT22;5028;50.974;4.968;2023-07-29T13:17:39;20.80;99.90
9975;DHT22;5028;50.974;4.968;2023-07-29T13:20:08;21.30;99.90
9975;DHT22;5028;50.974;4.968;2023-07-29T13:22:37;21.70;99.90
9975;DHT22;5028;50.974;4.968;2023-07-29T13:25:05;21.70;99.90
9975;DHT22;5028;50.974;4.968;2023-07-29T13:27:34;22.00;99.90
9975;DHT22;5028;50.974;4.968;2023-07-29T13:30:02;22.50;99.90
9975;DHT22;5028;50.974;4.968;2023-07-29T13:32:32;22.90;99.90
9975;DHT22;5028;50.974;4.968;2023-07-29T13:35:00;23.10;99.90
9975;DHT22;5028;50.974;4.968;2023-07-29T13:37:28;23.40;99.90
9975;DHT22;5028;50.974;4.968;2023-07-29T13:39:56;23.70;99.90
9975;DHT22;5028;50.974;4.968;2023-07-29T13:42:24;24.10;99.90
9975;DHT22;5028;50.974;4.968;2023-07-29T13:44:52;24.50;99.90
9975;DHT22;5028;50.974;4.968;2023-07-29T13:47:22;24.70;99.90
9975;DHT22;5028;50.974;4.968;2023-07-29T13:49:52;25.00;99.90
9975;DHT22;5028;50.974;4.968;2023-07-29T13:52:20;25.20;99.90
9975;DHT22;5028;50.974;4.968;2023-07-29T13:54:48;25.30;99.90
9975;DHT22;5028;50.974;4.968;2023-07-29T13:57:17;25.60;99.90
9975;DHT22;5028;50.974;4.968;2023-07-29T13:59:45;25.60;99.90
9975;DHT22;5028;50.974;4.968;2023-07-29T14:02:13;25.50;99.90
9975;DHT22;5028;50.974;4.968;2023-07-29T14:04:42;25.70;99.90
9975;DHT22;5028;50.974;4.968;2023-07-29T14:07:11;25.80;99.90
9975;DHT22;5028;50.974;4.968;2023-07-29T14:09:40;25.60;99.90
9975;DHT22;5028;50.974;4.968;2023-07-29T14:12:09;25.30;99.90
9975;DHT22;5028;50.974;4.968;2023-07-29T14:14:39;25.30;99.90
9975;DHT22;5028;50.974;4.968;2023-07-29T14:17:07;25.60;99.90
9975;DHT22;5028;50.974;4.968;2023-07-29T14:19:36;25.70;99.90
9975;DHT22;5028;50.974;4.968;2023-07-29T14:22:05;25.30;99.90
9975;DHT22;5028;50.974;4.968;2023-07-29T14:24:35;24.90;99.90
9975;DHT22;5028;50.974;4.968;2023-07-29T14:27:04;25.00;99.90
9975;DHT22;5028;50.974;4.968;2023-07-29T14:29:32;25.10;99.90
9975;DHT22;5028;50.974;4.968;2023-07-29T14:32:00;25.30;99.90
9975;DHT22;5028;50.974;4.968;2023-07-29T14:34:28;25.40;99.90
9975;DHT22;5028;50.974;4.968;2023-07-29T14:36:57;25.40;99.90
9975;DHT22;5028;50.974;4.968;2023-07-29T14:39:25;25.40;99.90
9975;DHT22;5028;50.974;4.968;2023-07-29T14:41:54;25.10;99.90
9975;DHT22;5028;50.974;4.968;2023-07-29T14:44:23;25.00;99.90
9975;DHT22;5028;50.974;4.968;2023-07-29T14:46:51;24.90;99.90
9975;DHT22;5028;50.974;4.968;2023-07-29T14:49:20;25.00;99.90
9975;DHT22;5028;50.974;4.968;2023-07-29T14:51:48;24.90;99.90
9975;DHT22;5028;50.974;4.968;2023-07-29T14:54:17;24.80;99.90
9975;DHT22;5028;50.974;4.968;2023-07-29T14:56:45;24.60;99.90
9975;DHT22;5028;50.974;4.968;2023-07-29T14:59:14;24.50;99.90
9975;DHT22;5028;50.974;4.968;2023-07-29T15:01:42;24.50;99.90
9975;DHT22;5028;50.974;4.968;2023-07-29T15:04:11;24.70;99.90
9975;DHT22;5028;50.974;4.968;2023-07-29T15:06:39;25.00;99.90
9975;DHT22;5028;50.974;4.968;2023-07-29T15:09:07;25.10;99.90
9975;DHT22;5028;50.974;4.968;2023-07-29T15:11:36;25.00;99.90
9975;DHT22;5028;50.974;4.968;2023-07-29T15:14:04;25.00;99.90
9975;DHT22;5028;50.974;4.968;2023-07-29T15:16:34;24.90;99.90
9975;DHT22;5028;50.974;4.968;2023-07-29T15:19:03;24.60;99.90
9975;DHT22;5028;50.974;4.968;2023-07-29T15:21:32;24.40;99.90
9975;DHT22;5028;50.974;4.968;2023-07-29T15:24:01;24.30;99.90
9975;DHT22;5028;50.974;4.968;2023-07-29T15:26:29;24.10;99.90
9975;DHT22;5028;50.974;4.968;2023-07-29T15:28:59;23.90;99.90
9975;DHT22;5028;50.974;4.968;2023-07-29T15:31:28;23.90;99.90
9975;DHT22;5028;50.974;4.968;2023-07-29T15:33:57;24.00;99.90
9975;DHT22;5028;50.974;4.968;2023-07-29T15:36:26;24.10;99.90
9975;DHT22;5028;50.974;4.968;2023-07-29T15:38:54;24.10;99.90
9975;DHT22;5028;50.974;4.968;2023-07-29T15:41:22;24.10;99.90
9975;DHT22;5028;50.974;4.968;2023-07-29T15:43:50;24.10;99.90
9975;DHT22;5028;50.974;4.968;2023-07-29T15:46:18;24.20;99.90
9975;DHT22;5028;50.974;4.968;2023-07-29T15:48:47;24.40;99.90
9975;DHT22;5028;50.974;4.968;2023-07-29T15:51:16;24.40;99.90
9975;DHT22;5028;50.974;4.968;2023-07-29T15:53:44;24.20;99.90
9975;DHT22;5028;50.974;4.968;2023-07-29T15:56:12;24.00;99.90
9975;DHT22;5028;50.974;4.968;2023-07-29T15:58:41;24.10;99.90
9975;DHT22;5028;50.974;4.968;2023-07-29T16:01:09;24.30;99.90
9975;DHT22;5028;50.974;4.968;2023-07-29T16:03:37;24.30;99.90
9975;DHT22;5028;50.974;4.968;2023-07-29T16:06:08;24.30;99.90
9975;DHT22;5028;50.974;4.968;2023-07-29T16:08:37;24.10;99.90
9975;DHT22;5028;50.974;4.968;2023-07-29T16:11:06;24.00;99.90
9975;DHT22;5028;50.974;4.968;2023-07-29T16:13:34;23.90;99.90
9975;DHT22;5028;50.974;4.968;2023-07-29T16:16:03;24.00;99.90